Heswall, United Kingdom
Current Conditions -  °F | °C
As of 8:50 PM on Thursday 20 Nov 2014 (Local Time) from EGGP Reporting Station
Few Clouds Few Clouds  
Wind Chill: 38°   Ceiling: Unl
Heat Index: 43°   Visibility: 5mi
Dew Point: 41°   Wind: 8mph
Humidity: 93%   Direction: 110°ESE
Pressure: 30.27"   Gusts: NA
Location:  53.34°N, 3.1°W
Report Text: EGGP 202050Z 11007KT 8000 FEW025 06/05 Q1025
Loading
Personal Weather Stations






























Interactive Weather Map New forecast layout! Learn more

10-Day Weather Forecast

Advertisements
Track Severe Weather on mobile